sensor_id;sensor_type;location;lat;lon;timestamp;pressure;altitude;pressure_sealevel;temperature;humidity
24013;BME280;12220;50.194;18.948;2023-04-08T00:00:54;102022.52;;;5.12;78.78
24013;BME280;12220;50.194;18.948;2023-04-08T00:02:56;102023.48;;;5.11;78.76
24013;BME280;12220;50.194;18.948;2023-04-08T00:04:57;102058.77;;;5.11;78.76
24013;BME280;12220;50.194;18.948;2023-04-08T00:07:08;102031.63;;;5.10;78.76
24013;BME280;12220;50.194;18.948;2023-04-08T00:09:09;102028.03;;;5.09;78.76
24013;BME280;12220;50.194;18.948;2023-04-08T00:11:11;102033.47;;;5.09;78.74
24013;BME280;12220;50.194;18.948;2023-04-08T00:13:12;102037.11;;;5.08;78.73
24013;BME280;12220;50.194;18.948;2023-04-08T00:15:24;102041.66;;;5.08;78.75
24013;BME280;12220;50.194;18.948;2023-04-08T00:17:26;102037.11;;;5.08;78.75
24013;BME280;12220;50.194;18.948;2023-04-08T00:19:28;102045.25;;;5.08;78.78
24013;BME280;12220;50.194;18.948;2023-04-08T00:21:29;102038.98;;;5.06;78.69
24013;BME280;12220;50.194;18.948;2023-04-08T00:23:39;102038.98;;;5.06;78.68
24013;BME280;12220;50.194;18.948;2023-04-08T00:25:41;102083.30;;;5.06;78.71
24013;BME280;12220;50.194;18.948;2023-04-08T00:27:42;102042.54;;;5.08;78.74
24013;BME280;12220;50.194;18.948;2023-04-08T00:29:43;102039.82;;;5.08;78.70
24013;BME280;12220;50.194;18.948;2023-04-08T00:31:54;102049.76;;;5.09;78.68
24013;BME280;12220;50.194;18.948;2023-04-08T00:33:57;102049.80;;;5.08;78.63
24013;BME280;12220;50.194;18.948;2023-04-08T00:35:59;102057.06;;;5.07;78.53
24013;BME280;12220;50.194;18.948;2023-04-08T00:38:00;102058.91;;;5.05;78.50
24013;BME280;12220;50.194;18.948;2023-04-08T00:40:10;102054.48;;;5.02;78.50
24013;BME280;12220;50.194;18.948;2023-04-08T00:42:12;102056.31;;;5.00;78.56
24013;BME280;12220;50.194;18.948;2023-04-08T00:44:13;102059.92;;;5.01;78.63
24013;BME280;12220;50.194;18.948;2023-04-08T00:46:20;102060.83;;;5.01;78.64
24013;BME280;12220;50.194;18.948;2023-04-08T00:48:24;102059.92;;;5.01;78.59
24013;BME280;12220;50.194;18.948;2023-04-08T00:50:26;102052.77;;;4.98;78.57
24013;BME280;12220;50.194;18.948;2023-04-08T00:52:27;102063.63;;;4.98;78.58
24013;BME280;12220;50.194;18.948;2023-04-08T00:54:30;102056.41;;;4.97;78.57
24013;BME280;12220;50.194;18.948;2023-04-08T00:56:39;102058.16;;;5.00;78.60
24013;BME280;12220;50.194;18.948;2023-04-08T00:58:42;102062.67;;;4.99;78.59
24013;BME280;12220;50.194;18.948;2023-04-08T01:00:58;102067.17;;;5.00;78.55
24013;BME280;12220;50.194;18.948;2023-04-08T01:03:12;102058.16;;;5.00;78.53
24013;BME280;12220;50.194;18.948;2023-04-08T01:05:14;102064.47;;;5.00;78.50
24013;BME280;12220;50.194;18.948;2023-04-08T01:09:38;102070.85;;;4.98;78.37
24013;BME280;12220;50.194;18.948;2023-04-08T01:11:43;102067.30;;;4.96;78.39
24013;BME280;12220;50.194;18.948;2023-04-08T01:13:45;102068.19;;;4.96;78.41
24013;BME280;12220;50.194;18.948;2023-04-08T01:15:49;102072.77;;;4.94;78.39
24013;BME280;12220;50.194;18.948;2023-04-08T01:17:54;102072.73;;;4.96;78.37
24013;BME280;12220;50.194;18.948;2023-04-08T01:19:58;102071.89;;;4.94;78.32
24013;BME280;12220;50.194;18.948;2023-04-08T01:24:25;102069.30;;;4.87;78.27
24013;BME280;12220;50.194;18.948;2023-04-08T01:26:28;102070.30;;;4.85;78.26
24013;BME280;12220;50.194;18.948;2023-04-08T01:28:30;102066.72;;;4.83;78.28
24013;BME280;12220;50.194;18.948;2023-04-08T01:30:33;102072.19;;;4.81;78.33
24013;BME280;12220;50.194;18.948;2023-04-08T01:32:35;102070.35;;;4.82;78.38
24013;BME280;12220;50.194;18.948;2023-04-08T01:34:39;102073.06;;;4.82;78.42
24013;BME280;12220;50.194;18.948;2023-04-08T01:36:46;102068.51;;;4.84;78.45
24013;BME280;12220;50.194;18.948;2023-04-08T01:38:48;102075.69;;;4.86;78.46
24013;BME280;12220;50.194;18.948;2023-04-08T01:40:51;102070.22;;;4.88;78.45
24013;BME280;12220;50.194;18.948;2023-04-08T01:42:55;102074.65;;;4.91;78.41
24013;BME280;12220;50.194;18.948;2023-04-08T01:45:00;102071.95;;;4.91;78.35
24013;BME280;12220;50.194;18.948;2023-04-08T01:47:02;102071.95;;;4.91;78.32
24013;BME280;12220;50.194;18.948;2023-04-08T01:49:05;102076.41;;;4.93;78.33
24013;BME280;12220;50.194;18.948;2023-04-08T01:51:08;102075.48;;;4.94;78.34
24013;BME280;12220;50.194;18.948;2023-04-08T01:53:15;102084.52;;;4.95;78.25
24013;BME280;12220;50.194;18.948;2023-04-08T01:55:16;102081.84;;;4.93;78.20
24013;BME280;12220;50.194;18.948;2023-04-08T01:57:25;102082.76;;;4.92;78.14
24013;BME280;12220;50.194;18.948;2023-04-08T01:59:30;102087.34;;;4.90;78.09
24013;BME280;12220;50.194;18.948;2023-04-08T02:01:36;102085.52;;;4.91;78.12
24013;BME280;12220;50.194;18.948;2023-04-08T02:03:40;102089.19;;;4.89;78.13
24013;BME280;12220;50.194;18.948;2023-04-08T02:05:42;102090.14;;;4.87;78.05
24013;BME280;12220;50.194;18.948;2023-04-08T02:07:44;102082.96;;;4.84;78.00
24013;BME280;12220;50.194;18.948;2023-04-08T02:09:49;102084.84;;;4.82;78.02
24013;BME280;12220;50.194;18.948;2023-04-08T02:11:51;102092.14;;;4.79;78.02
24013;BME280;12220;50.194;18.948;2023-04-08T02:13:52;102086.74;;;4.77;78.07
24013;BME280;12220;50.194;18.948;2023-04-08T02:16:02;102100.31;;;4.77;78.07
24013;BME280;12220;50.194;18.948;2023-04-08T02:18:12;102100.40;;;4.74;78.14
24013;BME280;12220;50.194;18.948;2023-04-08T02:20:36;102100.40;;;4.74;78.12
24013;BME280;12220;50.194;18.948;2023-04-08T02:22:56;101868.64;;;3.36;78.01
24013;BME280;12220;50.194;18.948;2023-04-08T02:25:12;102096.05;;;4.67;78.17
24013;BME280;12220;50.194;18.948;2023-04-08T02:27:16;102095.13;;;4.68;78.27
24013;BME280;12220;50.194;18.948;2023-04-08T02:29:18;102099.63;;;4.69;78.31
24013;BME280;12220;50.194;18.948;2023-04-08T02:31:20;102104.11;;;4.70;78.26
24013;BME280;12220;50.194;18.948;2023-04-08T02:33:23;102098.68;;;4.70;78.21
24013;BME280;12220;50.194;18.948;2023-04-08T02:35:26;102100.52;;;4.69;78.21
24013;BME280;12220;50.194;18.948;2023-04-08T02:37:29;102105.06;;;4.69;78.16
24013;BME280;12220;50.194;18.948;2023-04-08T02:39:31;102106.86;;;4.68;78.14
24013;BME280;12220;50.194;18.948;2023-04-08T02:41:38;102108.70;;;4.68;78.15
24013;BME280;12220;50.194;18.948;2023-04-08T02:43:39;102103.27;;;4.68;78.15
24013;BME280;12220;50.194;18.948;2023-04-08T02:45:41;102111.41;;;4.68;78.14
24013;BME280;12220;50.194;18.948;2023-04-08T02:47:43;102113.20;;;4.67;78.13
24013;BME280;12220;50.194;18.948;2023-04-08T02:49:53;102108.77;;;4.65;78.14
24013;BME280;12220;50.194;18.948;2023-04-08T02:51:55;102118.63;;;4.67;78.13
24013;BME280;12220;50.194;18.948;2023-04-08T02:53:56;102117.79;;;4.65;78.02
24013;BME280;12220;50.194;18.948;2023-04-08T02:55:57;102121.45;;;4.63;78.01
24013;BME280;12220;50.194;18.948;2023-04-08T02:58:09;102119.81;;;4.56;77.94
24013;BME280;12220;50.194;18.948;2023-04-08T03:00:11;102114.53;;;4.49;77.98
24013;BME280;12220;50.194;18.948;2023-04-08T03:02:13;102120.99;;;4.44;77.94
24013;BME280;12220;50.194;18.948;2023-04-08T03:04:14;102125.61;;;4.40;77.90
24013;BME280;12220;50.194;18.948;2023-04-08T03:06:25;102129.31;;;4.36;77.93
24013;BME280;12220;50.194;18.948;2023-04-08T03:08:26;102121.27;;;4.31;77.93
24013;BME280;12220;50.194;18.948;2023-04-08T03:10:28;102122.23;;;4.29;77.90
24013;BME280;12220;50.194;18.948;2023-04-08T03:12:29;102134.98;;;4.25;77.86
24013;BME280;12220;50.194;18.948;2023-04-08T03:14:40;102140.47;;;4.21;77.84
24013;BME280;12220;50.194;18.948;2023-04-08T03:16:41;102136.91;;;4.18;77.86
24013;BME280;12220;50.194;18.948;2023-04-08T03:18:43;102135.16;;;4.16;77.81
24013;BME280;12220;50.194;18.948;2023-04-08T03:20:44;102135.22;;;4.13;77.81
24013;BME280;12220;50.194;18.948;2023-04-08T03:22:56;102129.82;;;4.11;77.86
24013;BME280;12220;50.194;18.948;2023-04-08T03:24:58;102139.86;;;4.06;77.87
24013;BME280;12220;50.194;18.948;2023-04-08T03:26:59;102138.09;;;4.05;77.77
24013;BME280;12220;50.194;18.948;2023-04-08T03:29:00;102148.09;;;4.01;77.78
24013;BME280;12220;50.194;18.948;2023-04-08T03:31:11;102140.91;;;3.99;77.73
24013;BME280;12220;50.194;18.948;2023-04-08T03:33:12;102144.60;;;3.96;77.71
24013;BME280;12220;50.194;18.948;2023-04-08T03:35:14;102144.63;;;3.95;77.70
24013;BME280;12220;50.194;18.948;2023-04-08T03:37:16;102150.97;;;3.94;77.67
24013;BME280;12220;50.194;18.948;2023-04-08T03:39:26;102147.41;;;3.90;77.68
24013;BME280;12220;50.194;18.948;2023-04-08T03:41:28;102172.75;;;3.89;77.63
24013;BME280;12220;50.194;18.948;2023-04-08T03:43:30;102151.10;;;3.88;77.66
24013;BME280;12220;50.194;18.948;2023-04-08T03:45:32;102157.46;;;3.85;77.67
24013;BME280;12220;50.194;18.948;2023-04-08T03:47:41;102160.24;;;3.82;77.64
24013;BME280;12220;50.194;18.948;2023-04-08T03:49:43;102156.63;;;3.80;77.68
24013;BME280;12220;50.194;18.948;2023-04-08T03:51:44;102159.35;;;3.80;77.77
24013;BME280;12220;50.194;18.948;2023-04-08T03:53:45;102162.95;;;3.82;77.82
24013;BME280;12220;50.194;18.948;2023-04-08T03:55:58;102161.11;;;3.82;77.82
24013;BME280;12220;50.194;18.948;2023-04-08T03:57:59;102163.89;;;3.79;77.90
24013;BME280;12220;50.194;18.948;2023-04-08T04:00:01;102170.22;;;3.78;77.76
24013;BME280;12220;50.194;18.948;2023-04-08T04:02:07;101885.47;;;2.09;77.51
24013;BME280;12220;50.194;18.948;2023-04-08T04:04:13;102172.17;;;3.72;77.61
24013;BME280;12220;50.194;18.948;2023-04-08T04:06:16;102177.59;;;3.72;77.71
24013;BME280;12220;50.194;18.948;2023-04-08T04:08:17;102177.56;;;3.73;77.70
24013;BME280;12220;50.194;18.948;2023-04-08T04:10:19;102181.21;;;3.71;77.70
24013;BME280;12220;50.194;18.948;2023-04-08T04:12:27;102188.46;;;3.70;77.68
24013;BME280;12220;50.194;18.948;2023-04-08T04:14:28;102188.46;;;3.70;77.70
24013;BME280;12220;50.194;18.948;2023-04-08T04:16:29;102188.46;;;3.70;77.71
24013;BME280;12220;50.194;18.948;2023-04-08T04:18:31;102187.54;;;3.70;77.71
24013;BME280;12220;50.194;18.948;2023-04-08T04:20:43;102214.61;;;3.71;77.70
24013;BME280;12220;50.194;18.948;2023-04-08T04:22:44;102196.61;;;3.69;77.73
24013;BME280;12220;50.194;18.948;2023-04-08T04:24:47;102198.41;;;3.68;77.67
24013;BME280;12220;50.194;18.948;2023-04-08T04:26:48;102198.41;;;3.68;77.62
24013;BME280;12220;50.194;18.948;2023-04-08T04:28:58;102199.33;;;3.69;77.64
24013;BME280;12220;50.194;18.948;2023-04-08T04:30:59;102199.33;;;3.69;77.62
24013;BME280;12220;50.194;18.948;2023-04-08T04:33:01;102201.16;;;3.66;77.57
24013;BME280;12220;50.194;18.948;2023-04-08T04:35:02;102200.27;;;3.66;77.58
24013;BME280;12220;50.194;18.948;2023-04-08T04:37:13;102194.85;;;3.66;77.59
24013;BME280;12220;50.194;18.948;2023-04-08T04:39:14;102198.48;;;3.65;77.61
24013;BME280;12220;50.194;18.948;2023-04-08T04:41:16;102207.48;;;3.67;77.59
24013;BME280;12220;50.194;18.948;2023-04-08T04:43:18;102204.73;;;3.69;77.63
24013;BME280;12220;50.194;18.948;2023-04-08T04:45:28;102205.59;;;3.71;77.58
24013;BME280;12220;50.194;18.948;2023-04-08T04:47:30;102215.53;;;3.72;77.51
24013;BME280;12220;50.194;18.948;2023-04-08T04:49:32;102203.73;;;3.73;77.52
24013;BME280;12220;50.194;18.948;2023-04-08T04:51:33;102220.00;;;3.74;77.49
24013;BME280;12220;50.194;18.948;2023-04-08T04:53:43;102222.71;;;3.74;77.49
24013;BME280;12220;50.194;18.948;2023-04-08T04:55:45;102222.71;;;3.74;77.47
24013;BME280;12220;50.194;18.948;2023-04-08T04:57:47;102224.48;;;3.75;77.47
24013;BME280;12220;50.194;18.948;2023-04-08T04:59:48;102218.15;;;3.76;77.46
24013;BME280;12220;50.194;18.948;2023-04-08T05:01:59;102225.36;;;3.77;77.47
24013;BME280;12220;50.194;18.948;2023-04-08T05:04:00;102228.92;;;3.79;77.47
24013;BME280;12220;50.194;18.948;2023-04-08T05:06:02;102227.07;;;3.83;77.45
24013;BME280;12220;50.194;18.948;2023-04-08T05:08:04;102221.65;;;3.83;77.43
24013;BME280;12220;50.194;18.948;2023-04-08T05:10:14;102227.07;;;3.83;77.40
24013;BME280;12220;50.194;18.948;2023-04-08T05:12:16;101823.68;;;1.30;77.16
24013;BME280;12220;50.194;18.948;2023-04-08T05:14:20;102230.66;;;3.83;77.34
24013;BME280;12220;50.194;18.948;2023-04-08T05:16:21;102229.77;;;3.83;77.33
24013;BME280;12220;50.194;18.948;2023-04-08T05:18:29;102235.20;;;3.83;77.37
24013;BME280;12220;50.194;18.948;2023-04-08T05:20:31;102228.89;;;3.81;77.42
24013;BME280;12220;50.194;18.948;2023-04-08T05:22:32;102242.48;;;3.79;77.41
24013;BME280;12220;50.194;18.948;2023-04-08T05:24:34;102245.16;;;3.81;77.46
24013;BME280;12220;50.194;18.948;2023-04-08T05:26:45;102252.38;;;3.82;77.51
24013;BME280;12220;50.194;18.948;2023-04-08T05:28:51;102246.04;;;3.83;77.52
24013;BME280;12220;50.194;18.948;2023-04-08T05:30:53;102237.91;;;3.83;77.59
24013;BME280;12220;50.194;18.948;2023-04-08T05:32:54;102290.30;;;3.82;77.63
24013;BME280;12220;50.194;18.948;2023-04-08T05:35:02;102248.73;;;3.81;77.67
24013;BME280;12220;50.194;18.948;2023-04-08T05:37:03;102250.56;;;3.81;77.64
24013;BME280;12220;50.194;18.948;2023-04-08T05:39:05;102250.56;;;3.81;77.72
24013;BME280;12220;50.194;18.948;2023-04-08T05:41:06;102252.34;;;3.83;77.74
24013;BME280;12220;50.194;18.948;2023-04-08T05:43:15;102256.80;;;3.88;77.79
24013;BME280;12220;50.194;18.948;2023-04-08T05:45:16;102258.52;;;3.90;77.84
24013;BME280;12220;50.194;18.948;2023-04-08T05:47:18;102263.92;;;3.93;77.81
24013;BME280;12220;50.194;18.948;2023-04-08T05:49:21;102261.15;;;3.96;77.79
24013;BME280;12220;50.194;18.948;2023-04-08T05:51:31;102267.40;;;4.00;77.79
24013;BME280;12220;50.194;18.948;2023-04-08T05:53:32;102269.16;;;4.03;77.86
24013;BME280;12220;50.194;18.948;2023-04-08T05:55:34;102270.05;;;4.03;77.92
24013;BME280;12220;50.194;18.948;2023-04-08T05:57:35;102269.07;;;4.07;77.79
24013;BME280;12220;50.194;18.948;2023-04-08T05:59:46;102274.44;;;4.10;77.75
24013;BME280;12220;50.194;18.948;2023-04-08T06:01:50;102268.09;;;4.11;77.82
24013;BME280;12220;50.194;18.948;2023-04-08T06:03:51;102272.55;;;4.15;77.84
24013;BME280;12220;50.194;18.948;2023-04-08T06:05:58;102284.18;;;4.21;77.80
24013;BME280;12220;50.194;18.948;2023-04-08T06:08:01;102272.35;;;4.25;77.86
24013;BME280;12220;50.194;18.948;2023-04-08T06:10:03;102285.86;;;4.28;77.76
24013;BME280;12220;50.194;18.948;2023-04-08T06:12:06;102286.74;;;4.30;77.69
24013;BME280;12220;50.194;18.948;2023-04-08T06:14:08;102284.87;;;4.32;77.67
24013;BME280;12220;50.194;18.948;2023-04-08T06:16:16;102300.20;;;4.34;77.53
24013;BME280;12220;50.194;18.948;2023-04-08T06:18:18;102290.23;;;4.35;77.50
24013;BME280;12220;50.194;18.948;2023-04-08T06:20:19;102293.91;;;4.32;77.38
24013;BME280;12220;50.194;18.948;2023-04-08T06:22:21;102298.34;;;4.36;77.29
24013;BME280;12220;50.194;18.948;2023-04-08T06:24:31;102292.01;;;4.38;77.20
24013;BME280;12220;50.194;18.948;2023-04-08T06:26:33;102301.95;;;4.39;77.12
24013;BME280;12220;50.194;18.948;2023-04-08T06:28:35;102301.88;;;4.42;77.08
24013;BME280;12220;50.194;18.948;2023-04-08T06:30:36;102297.30;;;4.44;77.02
24013;BME280;12220;50.194;18.948;2023-04-08T06:32:46;102306.26;;;4.49;77.02
24013;BME280;12220;50.194;18.948;2023-04-08T06:34:48;102308.91;;;4.52;77.01
24013;BME280;12220;50.194;18.948;2023-04-08T06:36:49;102310.64;;;4.56;77.01
24013;BME280;12220;50.194;18.948;2023-04-08T06:38:51;102308.75;;;4.60;76.94
24013;BME280;12220;50.194;18.948;2023-04-08T06:41:05;102311.33;;;4.66;76.91
24013;BME280;12220;50.194;18.948;2023-04-08T06:43:07;102314.02;;;4.69;76.97
24013;BME280;12220;50.194;18.948;2023-04-08T06:45:09;102320.15;;;4.77;77.08
24013;BME280;12220;50.194;18.948;2023-04-08T06:47:11;102315.50;;;4.84;77.13
24013;BME280;12220;50.194;18.948;2023-04-08T06:49:17;102315.47;;;4.85;76.96
24013;BME280;12220;50.194;18.948;2023-04-08T06:51:18;102326.19;;;4.92;76.67
24013;BME280;12220;50.194;18.948;2023-04-08T06:53:21;102318.82;;;4.98;76.65
24013;BME280;12220;50.194;18.948;2023-04-08T06:55:24;102323.20;;;5.05;76.76
24013;BME280;12220;50.194;18.948;2023-04-08T06:57:33;102323.02;;;5.13;76.71
24013;BME280;12220;50.194;18.948;2023-04-08T06:59:35;102327.36;;;5.22;76.67
24013;BME280;12220;50.194;18.948;2023-04-08T07:01:36;102329.89;;;5.30;76.53
24013;BME280;12220;50.194;18.948;2023-04-08T07:03:38;102323.49;;;5.32;76.31
24013;BME280;12220;50.194;18.948;2023-04-08T07:05:48;102326.10;;;5.37;76.21
24013;BME280;12220;50.194;18.948;2023-04-08T07:07:50;102318.77;;;5.42;76.03
24013;BME280;12220;50.194;18.948;2023-04-08T07:09:51;102327.67;;;5.47;75.84
24013;BME280;12220;50.194;18.948;2023-04-08T07:11:53;102329.47;;;5.48;75.34
24013;BME280;12220;50.194;18.948;2023-04-08T07:14:03;102334.79;;;5.53;75.32
24013;BME280;12220;50.194;18.948;2023-04-08T07:16:05;102328.36;;;5.57;74.99
24013;BME280;12220;50.194;18.948;2023-04-08T07:18:07;102333.69;;;5.62;75.13
24013;BME280;12220;50.194;18.948;2023-04-08T07:20:09;102328.09;;;5.68;75.04
24013;BME280;12220;50.194;18.948;2023-04-08T07:22:19;102335.31;;;5.69;74.80
24013;BME280;12220;50.194;18.948;2023-04-08T07:24:21;102329.81;;;5.72;74.61
24013;BME280;12220;50.194;18.948;2023-04-08T07:26:22;102325.24;;;5.74;74.45
24013;BME280;12220;50.194;18.948;2023-04-08T07:28:24;102339.60;;;5.79;74.38
24013;BME280;12220;50.194;18.948;2023-04-08T07:30:33;102327.80;;;5.80;74.18
24013;BME280;12220;50.194;18.948;2023-04-08T07:32:34;102337.64;;;5.86;73.87
24013;BME280;12220;50.194;18.948;2023-04-08T07:34:37;102344.71;;;5.93;73.75
24013;BME280;12220;50.194;18.948;2023-04-08T07:36:38;102350.95;;;5.97;73.03
24013;BME280;12220;50.194;18.948;2023-04-08T07:38:48;102352.62;;;6.04;72.92
24013;BME280;12220;50.194;18.948;2023-04-08T07:40:50;102352.45;;;6.10;72.94
24013;BME280;12220;50.194;18.948;2023-04-08T07:42:51;102340.53;;;6.16;72.33
24013;BME280;12220;50.194;18.948;2023-04-08T07:44:53;102356.67;;;6.23;72.27
24013;BME280;12220;50.194;18.948;2023-04-08T07:47:03;102351.94;;;6.30;72.27
24013;BME280;12220;50.194;18.948;2023-04-08T07:49:05;102352.77;;;6.34;71.98
24013;BME280;12220;50.194;18.948;2023-04-08T07:51:08;102347.25;;;6.37;71.50
24013;BME280;12220;50.194;18.948;2023-04-08T07:53:10;102353.39;;;6.43;71.67
24013;BME280;12220;50.194;18.948;2023-04-08T07:55:18;102346.11;;;6.45;71.04
24013;BME280;12220;50.194;18.948;2023-04-08T07:57:20;102348.73;;;6.49;70.43
24013;BME280;12220;50.194;18.948;2023-04-08T07:59:22;102349.38;;;6.58;70.56
24013;BME280;12220;50.194;18.948;2023-04-08T08:01:23;102351.10;;;6.61;70.38
24013;BME280;12220;50.194;18.948;2023-04-08T08:03:33;102349.16;;;6.66;70.36
24013;BME280;12220;50.194;18.948;2023-04-08T08:05:35;102339.98;;;6.70;70.33
24013;BME280;12220;50.194;18.948;2023-04-08T08:07:38;102351.52;;;6.78;70.47
24013;BME280;12220;50.194;18.948;2023-04-08T08:09:40;102347.69;;;6.86;70.28
24013;BME280;12220;50.194;18.948;2023-04-08T08:11:48;102358.38;;;6.93;69.79
24013;BME280;12220;50.194;18.948;2023-04-08T08:13:50;102350.91;;;7.00;69.54
24013;BME280;12220;50.194;18.948;2023-04-08T08:15:53;102354.27;;;7.10;69.70
24013;BME280;12220;50.194;18.948;2023-04-08T08:17:54;102353.92;;;7.21;69.59
24013;BME280;12220;50.194;18.948;2023-04-08T08:20:07;102123.40;;;6.00;69.28
24013;BME280;12220;50.194;18.948;2023-04-08T08:22:10;102357.01;;;7.40;69.32
24013;BME280;12220;50.194;18.948;2023-04-08T08:24:12;102357.64;;;7.48;69.11
24013;BME280;12220;50.194;18.948;2023-04-08T08:26:13;102352.91;;;7.55;68.39
24013;BME280;12220;50.194;18.948;2023-04-08T08:28:18;102351.83;;;7.60;68.02
24013;BME280;12220;50.194;18.948;2023-04-08T08:30:20;102351.66;;;7.65;68.00
24013;BME280;12220;50.194;18.948;2023-04-08T08:32:22;102346.05;;;7.70;67.86
24013;BME280;12220;50.194;18.948;2023-04-08T08:34:23;102351.30;;;7.76;67.57
24013;BME280;12220;50.194;18.948;2023-04-08T08:36:34;102354.68;;;7.84;67.46
24013;BME280;12220;50.194;18.948;2023-04-08T08:38:36;102354.42;;;7.92;67.34
24013;BME280;12220;50.194;18.948;2023-04-08T08:40:38;102352.34;;;8.00;66.93
24013;BME280;12220;50.194;18.948;2023-04-08T08:42:40;102149.98;;;6.80;67.19
24013;BME280;12220;50.194;18.948;2023-04-08T08:44:49;102354.40;;;8.20;66.96
24013;BME280;12220;50.194;18.948;2023-04-08T08:46:51;102350.46;;;8.29;66.33
24013;BME280;12220;50.194;18.948;2023-04-08T08:48:53;102353.80;;;8.37;65.81
24013;BME280;12220;50.194;18.948;2023-04-08T08:50:54;102348.13;;;8.45;65.47
24013;BME280;12220;50.194;18.948;2023-04-08T08:53:04;102345.10;;;8.52;64.90
24013;BME280;12220;50.194;18.948;2023-04-08T08:55:05;102360.50;;;8.55;62.74
24013;BME280;12220;50.194;18.948;2023-04-08T08:57:19;102357.59;;;8.60;62.55
24013;BME280;12220;50.194;18.948;2023-04-08T08:59:21;102357.41;;;8.64;61.92
24013;BME280;12220;50.194;18.948;2023-04-08T09:01:29;102362.59;;;8.72;62.36
24013;BME280;12220;50.194;18.948;2023-04-08T09:03:40;102375.02;;;8.81;62.43
24013;BME280;12220;50.194;18.948;2023-04-08T09:05:48;102375.88;;;8.83;60.06
24013;BME280;12220;50.194;18.948;2023-04-08T09:07:50;102377.27;;;8.95;61.03
24013;BME280;12220;50.194;18.948;2023-04-08T09:09:53;102377.96;;;9.00;60.62
24013;BME280;12220;50.194;18.948;2023-04-08T09:12:03;102382.31;;;9.05;60.35
24013;BME280;12220;50.194;18.948;2023-04-08T09:16:19;102380.26;;;9.12;59.93
24013;BME280;12220;50.194;18.948;2023-04-08T09:18:23;102382.63;;;9.21;60.44
24013;BME280;12220;50.194;18.948;2023-04-08T09:20:24;102247.69;;;8.53;60.44
24013;BME280;12220;50.194;18.948;2023-04-08T09:22:26;102385.41;;;9.43;60.15
24013;BME280;12220;50.194;18.948;2023-04-08T09:24:29;102384.23;;;9.51;59.19
24013;BME280;12220;50.194;18.948;2023-04-08T09:26:31;102378.41;;;9.60;59.66
24013;BME280;12220;50.194;18.948;2023-04-08T09:28:40;102377.89;;;9.72;59.70
24013;BME280;12220;50.194;18.948;2023-04-08T09:30:42;102384.78;;;9.83;59.68
24013;BME280;12220;50.194;18.948;2023-04-08T09:32:47;102387.16;;;9.92;59.68
24013;BME280;12220;50.194;18.948;2023-04-08T09:34:49;102381.23;;;10.03;59.94
24013;BME280;12220;50.194;18.948;2023-04-08T09:36:54;102387.21;;;10.12;59.73
24013;BME280;12220;50.194;18.948;2023-04-08T09:38:56;102390.47;;;10.22;59.45
24013;BME280;12220;50.194;18.948;2023-04-08T09:41:01;102384.52;;;10.33;59.24
24013;BME280;12220;50.194;18.948;2023-04-08T09:43:08;102387.93;;;10.40;57.82
24013;BME280;12220;50.194;18.948;2023-04-08T09:45:12;102383.91;;;10.49;58.39
24013;BME280;12220;50.194;18.948;2023-04-08T09:47:21;102233.01;;;9.49;57.49
24013;BME280;12220;50.194;18.948;2023-04-08T09:49:37;102387.95;;;10.60;57.08
24013;BME280;12220;50.194;18.948;2023-04-08T09:52:38;102388.55;;;10.67;56.83
24013;BME280;12220;50.194;18.948;2023-04-08T09:54:07;102382.89;;;10.72;56.96
24013;BME280;12220;50.194;18.948;2023-04-08T09:56:13;102388.98;;;10.78;56.99
24013;BME280;12220;50.194;18.948;2023-04-08T09:58:21;102387.88;;;10.83;56.22
24013;BME280;12220;50.194;18.948;2023-04-08T10:00:44;102377.66;;;10.86;55.62
24013;BME280;12220;50.194;18.948;2023-04-08T10:05:19;102217.88;;;9.83;55.30
24013;BME280;12220;50.194;18.948;2023-04-08T10:07:22;102379.01;;;10.96;55.11
24013;BME280;12220;50.194;18.948;2023-04-08T10:09:24;102390.53;;;11.05;55.10
24013;BME280;12220;50.194;18.948;2023-04-08T10:11:29;102393.60;;;11.18;55.70
24013;BME280;12220;50.194;18.948;2023-04-08T10:13:32;102388.81;;;11.23;55.74
24013;BME280;12220;50.194;18.948;2023-04-08T10:15:37;102398.65;;;11.27;55.98
24013;BME280;12220;50.194;18.948;2023-04-08T10:17:43;102392.06;;;11.31;55.54
24013;BME280;12220;50.194;18.948;2023-04-08T10:19:48;102397.18;;;11.39;56.32
24013;BME280;12220;50.194;18.948;2023-04-08T10:21:59;102394.02;;;11.48;56.92
24013;BME280;12220;50.194;18.948;2023-04-08T10:24:02;102397.57;;;11.50;56.70
24013;BME280;12220;50.194;18.948;2023-04-08T10:26:28;102395.73;;;11.50;56.64
24013;BME280;12220;50.194;18.948;2023-04-08T10:28:24;102392.16;;;11.48;56.08
24013;BME280;12220;50.194;18.948;2023-04-08T10:32:48;102397.18;;;11.39;56.42
24013;BME280;12220;50.194;18.948;2023-04-08T10:34:56;102398.23;;;11.36;56.47
24013;BME280;12220;50.194;18.948;2023-04-08T10:36:58;102404.82;;;11.32;56.30
24013;BME280;12220;50.194;18.948;2023-04-08T10:39:01;102391.98;;;11.32;56.18
24013;BME280;12220;50.194;18.948;2023-04-08T10:41:03;102389.94;;;11.38;56.75
24013;BME280;12220;50.194;18.948;2023-04-08T10:43:18;102388.00;;;11.40;56.29
24013;BME280;12220;50.194;18.948;2023-04-08T10:45:20;102398.90;;;11.41;56.00
24013;BME280;12220;50.194;18.948;2023-04-08T10:47:25;102385.94;;;11.45;56.16
24013;BME280;12220;50.194;18.948;2023-04-08T10:49:33;102399.73;;;11.43;56.17
24013;BME280;12220;50.194;18.948;2023-04-08T10:51:37;102400.54;;;11.45;56.03
24013;BME280;12220;50.194;18.948;2023-04-08T10:53:48;102404.99;;;11.48;56.33
24013;BME280;12220;50.194;18.948;2023-04-08T10:58:08;102402.39;;;11.45;56.21
24013;BME280;12220;50.194;18.948;2023-04-08T11:00:10;102237.56;;;10.34;55.97
24013;BME280;12220;50.194;18.948;2023-04-08T11:02:13;102399.73;;;11.43;56.33